Time;durP1;ratioP1;P1;durP2;ratioP2;P2;SDS_P1;SDS_P2;PMS_P1;PMS_P2;Temp;Humidity;BMP_temperature;BMP_pressure;BME280_temperature;BME280_humidity;BME280_pressure;Samples;Min_cycle;Max_cycle;Signal;HPM_P1;HPM_P2
2023/08/12 00:00:24;;;;;;;3.55;3.22;;;;;;;;;;5000741;28;20237;-29
2023/08/12 00:02:51;;;;;;;3.10;2.90;;;;;;;;;;4992372;28;20204;-32
2023/08/12 00:05:20;;;;;;;3.88;3.30;;;;;;;;;;4989474;28;20219;-29
2023/08/12 00:07:47;;;;;;;4.97;3.27;;;;;;;;;;4988171;28;20299;-29
2023/08/12 00:10:14;;;;;;;3.70;3.40;;;;;;;;;;4998167;28;20231;-30
2023/08/12 00:12:41;;;;;;;10.90;3.93;;;;;;;;;;5003277;28;20254;-31
2023/08/12 00:15:10;;;;;;;3.40;3.10;;;;;;;;;;4992644;28;20203;-29
2023/08/12 00:17:40;;;;;;;5.53;3.20;;;;;;;;;;5004521;28;20203;-26
2023/08/12 00:20:10;;;;;;;5.43;3.30;;;;;;;;;;4990419;28;20228;-28
2023/08/12 00:22:39;;;;;;;3.10;2.90;;;;;;;;;;4999593;28;20269;-27
2023/08/12 00:25:08;;;;;;;4.17;3.10;;;;;;;;;;4998225;28;20204;-26
2023/08/12 00:27:35;;;;;;;4.88;3.17;;;;;;;;;;4998972;28;20215;-30
2023/08/12 00:30:02;;;;;;;3.78;3.47;;;;;;;;;;4997652;28;20223;-31
2023/08/12 00:32:29;;;;;;;5.10;3.70;;;;;;;;;;4995024;28;20196;-28
2023/08/12 00:34:56;;;;;;;3.07;2.87;;;;;;;;;;4987334;28;20207;-27
2023/08/12 00:37:23;;;;;;;7.22;3.30;;;;;;;;;;4996836;28;20207;-28
2023/08/12 00:39:52;;;;;;;3.50;3.17;;;;;;;;;;5000044;28;20230;-31
2023/08/12 00:42:19;;;;;;;5.90;3.40;;;;;;;;;;5002550;28;20223;-29
2023/08/12 00:44:46;;;;;;;3.53;3.23;;;;;;;;;;4987856;28;20217;-30
2023/08/12 00:47:13;;;;;;;3.20;2.90;;;;;;;;;;4994553;28;20208;-29
2023/08/12 00:49:43;;;;;;;3.67;3.37;;;;;;;;;;4987754;28;20231;-29
2023/08/12 00:52:10;;;;;;;3.53;3.05;;;;;;;;;;4989737;28;20199;-31
2023/08/12 00:54:37;;;;;;;3.30;3.00;;;;;;;;;;4992256;28;20206;-30
2023/08/12 00:57:07;;;;;;;4.53;2.93;;;;;;;;;;4992819;28;20203;-29
2023/08/12 00:59:36;;;;;;;5.97;3.53;;;;;;;;;;5000732;28;20237;-29
2023/08/12 01:02:04;;;;;;;3.33;3.10;;;;;;;;;;4989717;28;20219;-27
2023/08/12 01:04:31;;;;;;;8.00;3.57;;;;;;;;;;4993257;28;20207;-31
2023/08/12 01:06:58;;;;;;;5.00;3.07;;;;;;;;;;5001287;28;20206;-30
2023/08/12 01:09:25;;;;;;;3.27;2.97;;;;;;;;;;5000858;28;20234;-28
2023/08/12 01:11:56;;;;;;;4.67;3.20;;;;;;;;;;4988524;28;20259;-32
2023/08/12 01:14:28;;;;;;;5.17;3.33;;;;;;;;;;4997042;28;20204;-28
2023/08/12 01:16:59;;;;;;;7.63;3.20;;;;;;;;;;4991155;28;20196;-29
2023/08/12 01:19:31;;;;;;;2.87;2.67;;;;;;;;;;4987757;28;20416;-30
2023/08/12 01:22:01;;;;;;;3.10;2.90;;;;;;;;;;4994864;28;20233;-31
2023/08/12 01:24:36;;;;;;;4.50;3.50;;;;;;;;;;4989267;28;20214;-29
2023/08/12 01:27:04;;;;;;;5.25;3.28;;;;;;;;;;4988398;28;20210;-31
2023/08/12 01:29:31;;;;;;;3.17;2.87;;;;;;;;;;5004330;28;20222;-28
2023/08/12 01:32:03;;;;;;;4.67;3.07;;;;;;;;;;4989797;28;20191;-28
2023/08/12 01:34:34;;;;;;;3.83;3.07;;;;;;;;;;4986888;28;20262;-31
2023/08/12 01:37:02;;;;;;;3.43;3.13;;;;;;;;;;4986518;28;20295;-31
2023/08/12 01:39:32;;;;;;;3.47;3.13;;;;;;;;;;4991620;28;20255;-28
2023/08/12 01:42:00;;;;;;;4.97;3.73;;;;;;;;;;5006405;28;20222;-27
2023/08/12 01:44:27;;;;;;;3.13;2.83;;;;;;;;;;4999708;28;20250;-30
2023/08/12 01:46:55;;;;;;;6.23;3.40;;;;;;;;;;5006081;28;20205;-28
2023/08/12 01:49:23;;;;;;;5.03;3.40;;;;;;;;;;4986979;28;20224;-28
2023/08/12 01:51:50;;;;;;;3.10;2.83;;;;;;;;;;5003403;28;20226;-30
2023/08/12 01:54:17;;;;;;;3.73;3.20;;;;;;;;;;4998002;28;20195;-31
2023/08/12 01:56:45;;;;;;;3.40;3.10;;;;;;;;;;4997310;28;20299;-30
2023/08/12 01:59:12;;;;;;;3.07;2.80;;;;;;;;;;4983134;28;20223;-31
2023/08/12 02:01:40;;;;;;;3.30;2.90;;;;;;;;;;4999788;28;20223;-30
2023/08/12 02:04:07;;;;;;;3.87;2.50;;;;;;;;;;4992542;28;20199;-30
2023/08/12 02:06:34;;;;;;;3.10;2.90;;;;;;;;;;4983759;28;20233;-30
2023/08/12 02:09:01;;;;;;;3.50;3.20;;;;;;;;;;5001366;28;20230;-30
2023/08/12 02:11:28;;;;;;;6.23;2.80;;;;;;;;;;4990290;28;20290;-32
2023/08/12 02:13:57;;;;;;;3.27;2.97;;;;;;;;;;4993325;28;20212;-30
2023/08/12 02:16:24;;;;;;;3.30;3.00;;;;;;;;;;5001720;28;20204;-32
2023/08/12 02:18:51;;;;;;;4.30;3.10;;;;;;;;;;5004985;28;20222;-26
2023/08/12 02:21:18;;;;;;;3.57;2.90;;;;;;;;;;5001885;28;20215;-30
2023/08/12 02:23:45;;;;;;;3.43;3.10;;;;;;;;;;4994522;28;20207;-32
2023/08/12 02:26:12;;;;;;;4.13;3.07;;;;;;;;;;4990362;28;20219;-29
2023/08/12 02:28:39;;;;;;;3.40;3.10;;;;;;;;;;4985369;28;20226;-31
2023/08/12 02:31:08;;;;;;;3.77;3.10;;;;;;;;;;4992722;28;20258;-30
2023/08/12 02:33:35;;;;;;;3.57;3.27;;;;;;;;;;5003235;28;20227;-31
2023/08/12 02:36:02;;;;;;;5.77;3.13;;;;;;;;;;5002298;28;20210;-31
2023/08/12 02:38:29;;;;;;;3.83;3.07;;;;;;;;;;5002613;28;20306;-33
2023/08/12 02:40:56;;;;;;;6.63;3.33;;;;;;;;;;4997978;28;20205;-30
2023/08/12 02:43:23;;;;;;;4.43;3.67;;;;;;;;;;4999807;28;20234;-27
2023/08/12 02:45:51;;;;;;;5.27;3.33;;;;;;;;;;5000296;28;20195;-28
2023/08/12 02:48:19;;;;;;;3.77;3.47;;;;;;;;;;5009210;28;20214;-31
2023/08/12 02:50:46;;;;;;;4.77;3.40;;;;;;;;;;5009877;28;20217;-27
2023/08/12 02:53:13;;;;;;;3.27;2.90;;;;;;;;;;4990829;28;20210;-31
2023/08/12 02:55:40;;;;;;;4.70;3.20;;;;;;;;;;5001684;28;20207;-29
2023/08/12 02:58:07;;;;;;;3.20;2.90;;;;;;;;;;4996050;28;20215;-28
2023/08/12 03:00:35;;;;;;;4.97;3.17;;;;;;;;;;5000050;28;20234;-29
2023/08/12 03:03:02;;;;;;;4.47;3.10;;;;;;;;;;5001331;28;20215;-30
2023/08/12 03:05:30;;;;;;;4.63;3.10;;;;;;;;;;4990225;28;20222;-32
2023/08/12 03:08:01;;;;;;;4.57;3.20;;;;;;;;;;4994060;28;20223;-29
2023/08/12 03:10:28;;;;;;;3.90;3.23;;;;;;;;;;4993283;28;20242;-31
2023/08/12 03:12:55;;;;;;;4.77;3.23;;;;;;;;;;4994424;28;20207;-28
2023/08/12 03:15:22;;;;;;;4.07;2.97;;;;;;;;;;4998984;28;20236;-29
2023/08/12 03:17:49;;;;;;;3.43;3.13;;;;;;;;;;4992088;28;20352;-31
2023/08/12 03:20:16;;;;;;;4.07;3.23;;;;;;;;;;4996995;28;20228;-29
2023/08/12 03:22:45;;;;;;;3.10;2.87;;;;;;;;;;5003389;28;20240;-28
2023/08/12 03:25:14;;;;;;;3.40;3.10;;;;;;;;;;5009172;28;20213;-29
2023/08/12 03:27:41;;;;;;;5.43;2.87;;;;;;;;;;4994384;28;20207;-29
2023/08/12 03:30:09;;;;;;;6.60;3.20;;;;;;;;;;4989441;28;20256;-32
2023/08/12 03:32:36;;;;;;;3.50;3.20;;;;;;;;;;5001801;28;20209;-26
2023/08/12 03:35:04;;;;;;;4.60;3.20;;;;;;;;;;5009551;28;20460;-31
2023/08/12 03:37:31;;;;;;;3.27;2.97;;;;;;;;;;4997279;28;20215;-30
2023/08/12 03:40:00;;;;;;;3.77;2.80;;;;;;;;;;5007890;28;20225;-29
2023/08/12 03:42:27;;;;;;;4.73;3.03;;;;;;;;;;4998884;28;20234;-31
2023/08/12 03:44:54;;;;;;;4.23;3.37;;;;;;;;;;5007145;28;20214;-28
2023/08/12 03:47:23;;;;;;;4.77;3.00;;;;;;;;;;4999172;28;20207;-31
2023/08/12 03:49:50;;;;;;;3.20;2.90;;;;;;;;;;5008811;28;20245;-31
2023/08/12 03:52:17;;;;;;;3.30;3.00;;;;;;;;;;4998542;28;20210;-32
2023/08/12 03:54:45;;;;;;;3.13;2.83;;;;;;;;;;5007837;28;20204;-30
2023/08/12 03:57:13;;;;;;;3.30;2.93;;;;;;;;;;4994600;28;20203;-31
2023/08/12 03:59:40;;;;;;;3.20;3.00;;;;;;;;;;4996265;28;20258;-29
2023/08/12 04:02:08;;;;;;;3.90;3.37;;;;;;;;;;4992216;28;20329;-29
2023/08/12 04:04:35;;;;;;;2.77;2.57;;;;;;;;;;5009397;28;20211;-28
2023/08/12 04:07:02;;;;;;;3.33;3.03;;;;;;;;;;4998642;28;20202;-29
2023/08/12 04:09:29;;;;;;;4.57;3.33;;;;;;;;;;5004371;28;20244;-31
2023/08/12 04:11:56;;;;;;;3.93;3.27;;;;;;;;;;5000214;28;20202;-28
2023/08/12 04:14:25;;;;;;;3.30;3.00;;;;;;;;;;4998125;28;20291;-28
2023/08/12 04:16:52;;;;;;;3.17;2.97;;;;;;;;;;4991983;28;20282;-28
2023/08/12 04:19:19;;;;;;;3.97;2.80;;;;;;;;;;4988379;28;20231;-28
2023/08/12 04:21:46;;;;;;;3.50;3.20;;;;;;;;;;4991979;28;20206;-30
2023/08/12 04:24:13;;;;;;;3.87;3.10;;;;;;;;;;5002143;28;20277;-28
2023/08/12 04:26:40;;;;;;;6.20;3.20;;;;;;;;;;4997154;28;20210;-29
2023/08/12 04:29:08;;;;;;;3.77;3.27;;;;;;;;;;4996166;28;20219;-27
2023/08/12 04:31:36;;;;;;;3.37;3.17;;;;;;;;;;4991891;28;20213;-29
2023/08/12 04:34:04;;;;;;;3.70;3.40;;;;;;;;;;4991632;28;20213;-28
2023/08/12 04:36:31;;;;;;;3.53;3.00;;;;;;;;;;4993269;28;20228;-30
2023/08/12 04:38:59;;;;;;;6.47;3.50;;;;;;;;;;4999173;28;20233;-30
2023/08/12 04:41:26;;;;;;;3.77;3.30;;;;;;;;;;5006778;28;20215;-28
2023/08/12 04:43:53;;;;;;;3.50;3.20;;;;;;;;;;5002083;28;20218;-28
2023/08/12 04:46:20;;;;;;;3.87;3.20;;;;;;;;;;4997781;28;20211;-29
2023/08/12 04:48:49;;;;;;;3.53;3.27;;;;;;;;;;4997807;28;20226;-25
2023/08/12 04:51:16;;;;;;;3.83;3.43;;;;;;;;;;5005322;28;20202;-28
2023/08/12 04:53:43;;;;;;;6.23;3.50;;;;;;;;;;5001130;28;20206;-27
2023/08/12 04:56:10;;;;;;;4.77;3.60;;;;;;;;;;4998301;28;20222;-30
2023/08/12 04:58:37;;;;;;;3.73;3.10;;;;;;;;;;4992275;28;20236;-31
2023/08/12 05:01:04;;;;;;;3.30;3.00;;;;;;;;;;4994411;28;20204;-30
2023/08/12 05:03:31;;;;;;;4.97;3.57;;;;;;;;;;4990391;28;20253;-30
2023/08/12 05:06:00;;;;;;;4.10;3.70;;;;;;;;;;5004119;28;20207;-27
2023/08/12 05:08:28;;;;;;;3.70;3.40;;;;;;;;;;4996792;28;20672;-28
2023/08/12 05:10:55;;;;;;;3.50;3.17;;;;;;;;;;4997897;28;20216;-28
2023/08/12 05:13:24;;;;;;;4.10;3.70;;;;;;;;;;4995882;28;20200;-30
2023/08/12 05:15:51;;;;;;;5.33;3.67;;;;;;;;;;4996369;28;20214;-26
2023/08/12 05:18:18;;;;;;;4.30;3.17;;;;;;;;;;4992056;28;20248;-28
2023/08/12 05:20:45;;;;;;;4.30;3.37;;;;;;;;;;4991274;28;20221;-29
2023/08/12 05:23:14;;;;;;;4.43;3.37;;;;;;;;;;4996053;28;20333;-26
2023/08/12 05:25:41;;;;;;;4.27;3.30;;;;;;;;;;5000406;28;20203;-27
2023/08/12 05:28:08;;;;;;;3.90;3.50;;;;;;;;;;4996732;28;20213;-30
2023/08/12 05:30:36;;;;;;;4.23;3.40;;;;;;;;;;4995082;28;20233;-29
2023/08/12 05:33:03;;;;;;;3.83;3.37;;;;;;;;;;4993553;28;20210;-31
2023/08/12 05:35:30;;;;;;;7.70;3.50;;;;;;;;;;4989909;28;20207;-29
2023/08/12 05:37:57;;;;;;;5.23;3.40;;;;;;;;;;4990163;28;20214;-29
2023/08/12 05:40:26;;;;;;;3.97;3.30;;;;;;;;;;4996149;28;20230;-28
2023/08/12 05:42:53;;;;;;;5.60;3.53;;;;;;;;;;4997668;28;20330;-29
2023/08/12 05:45:20;;;;;;;3.30;3.00;;;;;;;;;;4997674;28;20212;-30
2023/08/12 05:47:47;;;;;;;3.37;3.00;;;;;;;;;;5003999;28;20212;-29
2023/08/12 05:50:14;;;;;;;6.00;2.83;;;;;;;;;;5009073;28;20236;-28
2023/08/12 05:52:41;;;;;;;4.73;3.10;;;;;;;;;;5000995;28;20210;-26
2023/08/12 05:55:08;;;;;;;3.77;3.47;;;;;;;;;;4992113;28;20207;-31
2023/08/12 05:57:37;;;;;;;5.03;3.37;;;;;;;;;;4997360;28;20200;-32
2023/08/12 06:00:04;;;;;;;3.63;3.33;;;;;;;;;;4991157;28;20229;-28
2023/08/12 06:02:33;;;;;;;4.93;3.23;;;;;;;;;;4994055;28;20229;-30
2023/08/12 06:05:00;;;;;;;3.60;3.27;;;;;;;;;;5009575;28;20213;-34
2023/08/12 06:07:27;;;;;;;3.47;3.17;;;;;;;;;;4997656;28;20213;-29
2023/08/12 06:09:54;;;;;;;4.97;3.57;;;;;;;;;;5001440;28;20576;-28
2023/08/12 06:12:21;;;;;;;3.27;3.00;;;;;;;;;;5002923;28;20213;-30
2023/08/12 06:14:50;;;;;;;3.67;2.90;;;;;;;;;;4997607;28;20209;-30
2023/08/12 06:17:17;;;;;;;3.87;2.93;;;;;;;;;;4996789;28;20205;-31
2023/08/12 06:19:44;;;;;;;3.40;3.03;;;;;;;;;;4989518;28;20242;-30
2023/08/12 06:22:11;;;;;;;5.73;3.80;;;;;;;;;;4996879;28;20305;-32
2023/08/12 06:24:38;;;;;;;4.17;3.50;;;;;;;;;;4998467;28;20276;-31
2023/08/12 06:27:06;;;;;;;3.90;3.60;;;;;;;;;;4988192;28;20207;-29
2023/08/12 06:29:34;;;;;;;4.27;3.43;;;;;;;;;;4995292;28;20278;-28
2023/08/12 06:32:02;;;;;;;4.17;3.50;;;;;;;;;;4989166;28;20196;-29
2023/08/12 06:34:29;;;;;;;3.43;3.10;;;;;;;;;;4989769;28;20217;-26
2023/08/12 06:36:56;;;;;;;3.70;3.40;;;;;;;;;;4987024;28;20241;-27
2023/08/12 06:39:23;;;;;;;6.03;3.60;;;;;;;;;;4998504;28;20225;-29
2023/08/12 06:41:52;;;;;;;4.20;3.80;;;;;;;;;;5002109;28;20211;-26
2023/08/12 06:44:19;;;;;;;4.17;3.77;;;;;;;;;;4993529;28;20241;-30
2023/08/12 06:46:46;;;;;;;3.90;3.60;;;;;;;;;;5002682;28;20199;-30
2023/08/12 06:49:15;;;;;;;3.73;3.43;;;;;;;;;;4987236;28;20230;-31
2023/08/12 06:51:42;;;;;;;8.47;3.90;;;;;;;;;;4989762;28;20214;-28
2023/08/12 06:54:09;;;;;;;4.73;3.80;;;;;;;;;;5001557;28;20228;-31
2023/08/12 06:56:36;;;;;;;6.63;3.73;;;;;;;;;;4993449;28;20209;-29
2023/08/12 06:59:03;;;;;;;4.97;3.60;;;;;;;;;;4993118;28;20247;-28
2023/08/12 07:01:30;;;;;;;7.83;3.50;;;;;;;;;;4996496;28;20232;-32
2023/08/12 07:03:58;;;;;;;4.43;3.60;;;;;;;;;;4996324;28;20226;-28
2023/08/12 07:06:26;;;;;;;5.80;3.60;;;;;;;;;;4994537;28;20203;-30
2023/08/12 07:08:53;;;;;;;3.80;3.23;;;;;;;;;;4994248;28;20237;-28
2023/08/12 07:11:31;;;;;;;9.07;3.50;;;;;;;;;;5006033;28;20213;-29
2023/08/12 07:13:58;;;;;;;5.07;3.70;;;;;;;;;;4995204;28;20206;-28
2023/08/12 07:16:25;;;;;;;4.13;3.73;;;;;;;;;;5002436;28;20226;-31
2023/08/12 07:18:53;;;;;;;4.30;3.90;;;;;;;;;;5005173;28;20219;-31
2023/08/12 07:21:20;;;;;;;4.03;3.13;;;;;;;;;;4999321;28;20219;-30
2023/08/12 07:23:48;;;;;;;4.20;3.78;;;;;;;;;;5002811;28;20216;-29
2023/08/12 07:26:23;;;;;;;4.55;3.95;;;;;;;;;;5000734;28;20200;-30
2023/08/12 07:28:50;;;;;;;3.97;3.63;;;;;;;;;;4990087;28;20219;-27
2023/08/12 07:31:17;;;;;;;4.15;3.58;;;;;;;;;;5005657;28;20212;-29
2023/08/12 07:33:44;;;;;;;5.07;3.40;;;;;;;;;;5005556;28;20198;-30
2023/08/12 07:36:11;;;;;;;7.95;4.05;;;;;;;;;;5008923;28;20210;-31
2023/08/12 07:38:38;;;;;;;4.47;3.50;;;;;;;;;;4998025;28;20223;-28
2023/08/12 07:41:07;;;;;;;4.40;4.00;;;;;;;;;;5011147;28;20212;-28
2023/08/12 07:43:34;;;;;;;4.78;4.00;;;;;;;;;;4999621;28;20229;-27
2023/08/12 07:46:01;;;;;;;4.03;3.67;;;;;;;;;;4992159;28;20275;-30
2023/08/12 07:48:28;;;;;;;6.95;3.67;;;;;;;;;;4991741;28;20206;-27
2023/08/12 07:50:59;;;;;;;5.40;3.58;;;;;;;;;;4991738;28;20215;-30
2023/08/12 07:53:26;;;;;;;5.93;3.85;;;;;;;;;;4991384;28;20202;-29
2023/08/12 07:55:54;;;;;;;5.15;3.70;;;;;;;;;;4997666;28;20274;-29
2023/08/12 07:58:22;;;;;;;4.80;3.58;;;;;;;;;;4991655;28;20214;-30
2023/08/12 08:00:49;;;;;;;4.20;3.58;;;;;;;;;;5001099;28;20212;-28
2023/08/12 08:03:16;;;;;;;4.68;3.78;;;;;;;;;;4999344;28;20209;-32
2023/08/12 08:05:45;;;;;;;5.47;3.58;;;;;;;;;;4999439;28;20216;-32
2023/08/12 08:08:13;;;;;;;3.88;3.55;;;;;;;;;;5009120;28;20293;-30
2023/08/12 08:10:40;;;;;;;4.03;3.70;;;;;;;;;;5002663;28;20231;-30
2023/08/12 08:13:07;;;;;;;5.15;4.30;;;;;;;;;;4991642;28;20234;-28
2023/08/12 08:15:36;;;;;;;5.43;3.83;;;;;;;;;;4994253;28;20211;-28
2023/08/12 08:18:04;;;;;;;4.38;3.75;;;;;;;;;;5001978;28;20201;-31
2023/08/12 08:20:31;;;;;;;5.05;3.70;;;;;;;;;;5002617;28;20315;-31
2023/08/12 08:22:58;;;;;;;3.92;3.42;;;;;;;;;;5001954;28;20200;-30
2023/08/12 08:25:25;;;;;;;5.80;3.63;;;;;;;;;;4999064;28;20221;-28
2023/08/12 08:27:52;;;;;;;3.78;3.38;;;;;;;;;;5008005;28;20199;-30
2023/08/12 08:30:19;;;;;;;4.60;3.70;;;;;;;;;;4999623;28;20266;-32
2023/08/12 08:32:48;;;;;;;3.70;3.40;;;;;;;;;;4991555;28;20218;-27
2023/08/12 08:35:15;;;;;;;6.43;3.40;;;;;;;;;;4997911;28;20192;-31
2023/08/12 08:37:45;;;;;;;5.45;3.80;;;;;;;;;;5003379;28;20191;-30
2023/08/12 08:40:13;;;;;;;3.38;3.08;;;;;;;;;;4993806;28;20262;-28
2023/08/12 08:42:40;;;;;;;3.42;3.13;;;;;;;;;;4997158;28;20219;-31
2023/08/12 08:45:13;;;;;;;6.72;3.75;;;;;;;;;;4994516;28;20220;-29
2023/08/12 08:47:40;;;;;;;3.08;2.88;;;;;;;;;;5000376;28;20238;-31
2023/08/12 08:50:09;;;;;;;4.10;3.20;;;;;;;;;;4991967;28;20310;-30
2023/08/12 08:52:38;;;;;;;6.78;3.63;;;;;;;;;;5001295;28;20209;-33
2023/08/12 08:55:06;;;;;;;3.80;3.13;;;;;;;;;;4996471;28;20232;-31
2023/08/12 08:57:33;;;;;;;4.00;3.60;;;;;;;;;;5005981;28;20294;-33
2023/08/12 09:00:00;;;;;;;3.45;3.15;;;;;;;;;;4997354;28;20230;-28
2023/08/12 09:02:27;;;;;;;3.35;3.05;;;;;;;;;;5005781;28;20219;-30
2023/08/12 09:04:55;;;;;;;3.72;3.35;;;;;;;;;;4999453;28;20301;-29
2023/08/12 09:07:24;;;;;;;3.65;3.35;;;;;;;;;;4993104;28;20207;-30
2023/08/12 09:09:53;;;;;;;6.07;3.35;;;;;;;;;;4997122;28;20230;-29
2023/08/12 09:12:21;;;;;;;3.25;3.03;;;;;;;;;;4986589;28;20214;-31
2023/08/12 09:14:48;;;;;;;3.88;3.50;;;;;;;;;;4994079;28;20209;-35
2023/08/12 09:17:16;;;;;;;3.63;3.30;;;;;;;;;;4995444;28;20204;-30
2023/08/12 09:19:43;;;;;;;3.55;3.25;;;;;;;;;;4982820;28;20231;-30
2023/08/12 09:22:11;;;;;;;5.45;3.35;;;;;;;;;;4993409;28;20218;-32
2023/08/12 09:24:40;;;;;;;6.25;3.38;;;;;;;;;;4998560;28;20231;-29
2023/08/12 09:27:07;;;;;;;3.58;3.28;;;;;;;;;;4991062;28;20257;-32
2023/08/12 09:29:34;;;;;;;4.03;3.40;;;;;;;;;;5001099;28;20227;-30
2023/08/12 09:32:11;;;;;;;6.30;3.50;;;;;;;;;;5006315;28;20199;-32
2023/08/12 09:34:38;;;;;;;3.92;3.13;;;;;;;;;;5001742;28;20203;-29
2023/08/12 09:37:05;;;;;;;3.60;3.30;;;;;;;;;;4998737;28;20212;-30
2023/08/12 09:39:33;;;;;;;3.40;3.10;;;;;;;;;;4997310;28;20329;-31
2023/08/12 09:42:02;;;;;;;4.32;3.00;;;;;;;;;;5000755;28;20272;-28
2023/08/12 09:44:31;;;;;;;3.50;2.95;;;;;;;;;;4993462;28;20231;-31
2023/08/12 09:46:59;;;;;;;5.05;3.05;;;;;;;;;;4991092;28;20204;-31
2023/08/12 09:49:27;;;;;;;4.70;3.22;;;;;;;;;;4984682;28;20232;-30
2023/08/12 09:51:55;;;;;;;7.30;3.10;;;;;;;;;;4985826;28;20250;-29
2023/08/12 09:54:24;;;;;;;3.60;3.22;;;;;;;;;;4997630;28;20210;-31
2023/08/12 09:56:54;;;;;;;4.75;2.97;;;;;;;;;;5005539;28;20215;-31
2023/08/12 09:59:31;;;;;;;5.20;3.17;;;;;;;;;;4995165;28;20235;-33
2023/08/12 10:01:59;;;;;;;3.72;3.00;;;;;;;;;;4992719;28;20206;-31
2023/08/12 10:04:29;;;;;;;3.58;2.40;;;;;;;;;;4987428;28;20223;-28
2023/08/12 10:06:56;;;;;;;4.88;2.75;;;;;;;;;;4996849;28;20265;-29
2023/08/12 10:09:24;;;;;;;3.20;2.50;;;;;;;;;;4988242;28;20229;-31
2023/08/12 10:11:54;;;;;;;3.25;2.83;;;;;;;;;;4986863;28;20298;-30
2023/08/12 10:14:21;;;;;;;2.50;2.30;;;;;;;;;;4994142;28;20221;-31
2023/08/12 10:16:49;;;;;;;2.60;2.40;;;;;;;;;;5002707;28;20282;-32
2023/08/12 10:19:18;;;;;;;3.20;2.33;;;;;;;;;;5009408;28;20229;-32
2023/08/12 10:21:45;;;;;;;3.50;2.72;;;;;;;;;;5001524;28;20211;-30
2023/08/12 10:24:12;;;;;;;4.18;2.58;;;;;;;;;;4999332;28;20251;-27
2023/08/12 10:26:41;;;;;;;3.38;2.70;;;;;;;;;;5001896;28;20207;-28
2023/08/12 10:29:09;;;;;;;4.25;2.53;;;;;;;;;;4995879;28;20231;-30
2023/08/12 10:31:36;;;;;;;4.07;2.42;;;;;;;;;;5000469;28;20230;-29
2023/08/12 10:34:05;;;;;;;6.22;2.80;;;;;;;;;;5002433;28;20209;-29
2023/08/12 10:36:34;;;;;;;3.28;2.53;;;;;;;;;;4991312;28;20210;-28
2023/08/12 10:39:02;;;;;;;3.58;2.20;;;;;;;;;;4991922;28;20583;-32
2023/08/12 10:41:30;;;;;;;2.50;2.30;;;;;;;;;;5007201;28;20198;-29
2023/08/12 10:44:01;;;;;;;2.88;2.53;;;;;;;;;;4997394;28;20234;-30
2023/08/12 10:46:32;;;;;;;2.67;2.30;;;;;;;;;;5000830;28;20524;-27
2023/08/12 10:49:06;;;;;;;4.30;2.28;;;;;;;;;;5010170;28;20226;-29
2023/08/12 10:51:54;;;;;;;4.32;2.45;;;;;;;;;;4993942;28;20200;-29
2023/08/12 10:54:26;;;;;;;5.25;2.67;;;;;;;;;;4999466;28;20207;-30
2023/08/12 10:57:12;;;;;;;2.70;2.50;;;;;;;;;;4993932;28;20222;-28
2023/08/12 10:59:58;;;;;;;2.35;2.20;;;;;;;;;;5006932;28;20254;-31
2023/08/12 11:02:29;;;;;;;2.95;2.17;;;;;;;;;;5004258;28;20199;-30
2023/08/12 11:04:58;;;;;;;3.05;2.10;;;;;;;;;;5013669;28;20219;-28
2023/08/12 11:07:35;;;;;;;2.53;2.33;;;;;;;;;;5010256;28;20207;-30
2023/08/12 11:10:07;;;;;;;2.72;2.42;;;;;;;;;;5009990;28;20288;-30
2023/08/12 11:12:35;;;;;;;7.30;2.40;;;;;;;;;;5008902;28;20203;-32
2023/08/12 11:15:03;;;;;;;2.65;2.40;;;;;;;;;;4998945;28;20207;-31
2023/08/12 11:17:31;;;;;;;3.13;2.28;;;;;;;;;;4996912;28;20207;-32
2023/08/12 11:20:00;;;;;;;2.45;2.25;;;;;;;;;;5009306;28;20237;-30
2023/08/12 11:22:29;;;;;;;7.82;2.50;;;;;;;;;;5008390;28;20205;-28
2023/08/12 11:24:56;;;;;;;3.17;2.28;;;;;;;;;;4999717;28;20219;-30
2023/08/12 11:27:23;;;;;;;2.75;2.35;;;;;;;;;;5007535;28;20210;-31
2023/08/12 11:29:51;;;;;;;3.15;2.10;;;;;;;;;;4997056;28;20224;-27
2023/08/12 11:32:18;;;;;;;2.50;2.30;;;;;;;;;;5000486;28;20203;-31
2023/08/12 11:34:45;;;;;;;2.97;2.28;;;;;;;;;;4991608;28;20204;-29
2023/08/12 11:37:14;;;;;;;2.95;2.40;;;;;;;;;;4987111;28;20313;-29
2023/08/12 11:39:41;;;;;;;4.53;2.40;;;;;;;;;;5002484;28;20237;-30
2023/08/12 11:42:08;;;;;;;3.97;2.33;;;;;;;;;;4994633;28;20291;-29
2023/08/12 11:44:35;;;;;;;4.22;2.47;;;;;;;;;;5005966;28;20231;-29
2023/08/12 11:47:03;;;;;;;3.17;2.08;;;;;;;;;;5010543;28;20199;-32
2023/08/12 11:49:30;;;;;;;2.40;2.20;;;;;;;;;;4992613;28;20250;-30
2023/08/12 11:51:57;;;;;;;3.78;2.38;;;;;;;;;;4989128;28;20225;-31
2023/08/12 11:54:26;;;;;;;5.25;2.15;;;;;;;;;;5004859;28;20237;-30
2023/08/12 11:56:53;;;;;;;6.82;2.35;;;;;;;;;;4995477;28;20207;-28
2023/08/12 11:59:22;;;;;;;2.45;2.25;;;;;;;;;;4992292;28;20326;-27
2023/08/12 12:01:50;;;;;;;2.30;1.90;;;;;;;;;;5003565;28;20199;-32
2023/08/12 12:04:20;;;;;;;7.78;2.50;;;;;;;;;;5012326;28;20207;-28
2023/08/12 12:06:47;;;;;;;4.40;2.22;;;;;;;;;;5006611;28;20210;-28
2023/08/12 12:09:14;;;;;;;2.42;2.00;;;;;;;;;;5004513;28;20226;-30
2023/08/12 12:11:43;;;;;;;3.30;2.47;;;;;;;;;;4997768;28;20199;-28
2023/08/12 12:14:11;;;;;;;3.42;1.90;;;;;;;;;;5003685;28;20214;-31
2023/08/12 12:16:41;;;;;;;4.43;2.05;;;;;;;;;;4998150;28;20206;-32
2023/08/12 12:19:11;;;;;;;3.90;1.70;;;;;;;;;;5013368;28;20282;-28
2023/08/12 12:21:41;;;;;;;4.40;1.63;;;;;;;;;;5013132;28;20213;-30
2023/08/12 12:24:09;;;;;;;7.70;1.55;;;;;;;;;;4997749;28;20204;-27
2023/08/12 12:26:36;;;;;;;6.25;2.03;;;;;;;;;;4991634;28;20227;-28
2023/08/12 12:29:05;;;;;;;3.83;1.38;;;;;;;;;;4998007;28;20230;-32
2023/08/12 12:31:33;;;;;;;6.47;1.55;;;;;;;;;;5003817;28;20210;-31
2023/08/12 12:34:00;;;;;;;3.20;1.48;;;;;;;;;;5011940;28;20203;-28
2023/08/12 12:36:27;;;;;;;2.47;1.63;;;;;;;;;;4998463;28;20290;-29
2023/08/12 12:38:55;;;;;;;1.63;1.40;;;;;;;;;;5005312;28;20317;-30
2023/08/12 12:41:22;;;;;;;4.75;2.00;;;;;;;;;;5006438;28;20418;-29
2023/08/12 12:43:49;;;;;;;3.40;1.80;;;;;;;;;;4997295;28;20212;-26
2023/08/12 12:46:18;;;;;;;6.18;2.80;;;;;;;;;;5005699;28;20223;-30
2023/08/12 12:48:45;;;;;;;4.82;2.47;;;;;;;;;;5005370;28;20226;-29
2023/08/12 12:51:12;;;;;;;2.95;2.40;;;;;;;;;;4996204;28;20198;-27
2023/08/12 12:53:39;;;;;;;4.03;2.00;;;;;;;;;;4989221;28;20310;-30
2023/08/12 12:56:07;;;;;;;4.85;2.28;;;;;;;;;;4988620;28;20218;-31
2023/08/12 12:58:34;;;;;;;5.63;2.80;;;;;;;;;;4987520;28;20209;-33
2023/08/12 13:01:01;;;;;;;3.33;2.67;;;;;;;;;;4996162;28;20222;-28
2023/08/12 13:03:30;;;;;;;7.88;3.22;;;;;;;;;;5005952;28;20234;-30
2023/08/12 13:05:58;;;;;;;2.50;2.30;;;;;;;;;;5005366;28;20221;-32
2023/08/12 13:08:25;;;;;;;4.47;2.33;;;;;;;;;;5001336;28;20206;-31
2023/08/12 13:10:52;;;;;;;7.30;3.30;;;;;;;;;;4992752;28;20214;-29
2023/08/12 13:13:19;;;;;;;6.22;3.10;;;;;;;;;;4998145;28;20218;-29
2023/08/12 13:15:47;;;;;;;5.53;2.47;;;;;;;;;;4998599;28;20206;-31
2023/08/12 13:18:14;;;;;;;4.07;2.65;;;;;;;;;;4989379;28;20197;-32
2023/08/12 13:20:43;;;;;;;4.97;2.67;;;;;;;;;;4987902;28;20229;-30
2023/08/12 13:23:10;;;;;;;5.03;2.45;;;;;;;;;;4987091;28;20209;-28
2023/08/12 13:25:37;;;;;;;3.95;2.78;;;;;;;;;;4994938;28;20264;-31
2023/08/12 13:28:05;;;;;;;4.22;2.65;;;;;;;;;;4996865;28;20240;-32
2023/08/12 13:30:32;;;;;;;8.35;3.08;;;;;;;;;;5000439;28;20229;-28
2023/08/12 13:32:59;;;;;;;4.28;2.40;;;;;;;;;;4992502;28;20290;-31
2023/08/12 13:35:26;;;;;;;3.05;2.40;;;;;;;;;;4993724;28;20205;-28
2023/08/12 13:37:55;;;;;;;7.30;3.20;;;;;;;;;;4987365;28;20356;-30
2023/08/12 13:40:22;;;;;;;3.88;2.40;;;;;;;;;;5005284;28;20310;-31
2023/08/12 13:42:50;;;;;;;3.22;2.65;;;;;;;;;;4993395;28;20301;-32
2023/08/12 13:45:17;;;;;;;3.13;2.67;;;;;;;;;;4992405;28;20226;-33
2023/08/12 13:47:45;;;;;;;3.55;2.67;;;;;;;;;;4992572;28;20209;-30
2023/08/12 13:50:13;;;;;;;2.83;2.40;;;;;;;;;;4997877;28;20312;-27
2023/08/12 13:52:40;;;;;;;3.88;2.53;;;;;;;;;;4997915;28;20290;-29
2023/08/12 13:55:09;;;;;;;3.83;2.63;;;;;;;;;;4989336;28;20216;-30
2023/08/12 13:57:36;;;;;;;3.90;2.80;;;;;;;;;;5001334;28;20213;-28
2023/08/12 14:00:09;;;;;;;4.07;2.90;;;;;;;;;;4997624;28;20221;-31
2023/08/12 14:02:36;;;;;;;3.10;2.80;;;;;;;;;;4994221;28;20232;-27
2023/08/12 14:05:03;;;;;;;3.75;2.70;;;;;;;;;;4998006;28;20211;-26
2023/08/12 14:07:30;;;;;;;5.60;3.05;;;;;;;;;;4992125;28;20216;-31
2023/08/12 14:09:57;;;;;;;5.95;2.92;;;;;;;;;;4990868;28;20240;-31
2023/08/12 14:12:26;;;;;;;3.83;2.90;;;;;;;;;;5000253;28;20209;-29
2023/08/12 14:14:54;;;;;;;6.47;2.90;;;;;;;;;;5003070;28;20204;-30
2023/08/12 14:17:23;;;;;;;4.63;3.50;;;;;;;;;;5008193;28;20206;-30
2023/08/12 14:19:51;;;;;;;3.80;3.17;;;;;;;;;;5008411;28;20230;-29
2023/08/12 14:22:18;;;;;;;4.20;3.42;;;;;;;;;;4989452;28;20214;-30
2023/08/12 14:24:47;;;;;;;3.63;3.10;;;;;;;;;;4995854;28;20210;-28
2023/08/12 14:27:15;;;;;;;4.45;3.08;;;;;;;;;;4995739;28;20254;-29
2023/08/12 14:29:44;;;;;;;5.68;3.10;;;;;;;;;;5001266;28;20229;-28
2023/08/12 14:32:11;;;;;;;3.05;2.53;;;;;;;;;;4998741;28;20214;-30
2023/08/12 14:34:38;;;;;;;4.68;2.67;;;;;;;;;;5007247;28;20249;-31
2023/08/12 14:37:07;;;;;;;2.72;2.53;;;;;;;;;;4991500;28;20209;-32
2023/08/12 14:39:34;;;;;;;2.70;2.50;;;;;;;;;;5006105;28;20225;-29
2023/08/12 14:42:03;;;;;;;5.53;2.30;;;;;;;;;;4997783;28;20199;-32
2023/08/12 14:44:31;;;;;;;7.05;2.47;;;;;;;;;;5000353;28;20306;-30
2023/08/12 14:47:00;;;;;;;5.13;2.78;;;;;;;;;;5000361;28;20218;-27